Time;durP1;ratioP1;P1;durP2;ratioP2;P2;SDS_P1;SDS_P2;PMS_P1;PMS_P2;Temp;Humidity;BMP_temperature;BMP_pressure;BME280_temperature;BME280_humidity;BME280_pressure;Samples;Min_cycle;Max_cycle;Signal;HPM_P1;HPM_P2
2023/01/09 00:04:57;;;;;;;31.53;15.20;;;5.70;99.90;;;3.35;100.00;99460.91;10420652;28;20168;-82
2023/01/09 00:10:00;;;;;;;29.37;14.60;;;5.60;99.90;;;3.30;100.00;99468.38;10444840;28;20064;-82
2023/01/09 00:15:05;;;;;;;28.00;14.33;;;5.60;99.90;;;3.25;100.00;99467.97;10427940;28;20062;-82
2023/01/09 00:20:10;;;;;;;27.63;13.73;;;5.50;99.90;;;3.18;100.00;99465.91;10437338;28;20060;-82
2023/01/09 00:25:14;;;;;;;28.10;13.60;;;5.50;99.90;;;3.12;100.00;99455.09;10438389;28;20064;-82
2023/01/09 00:30:17;;;;;;;29.70;14.83;;;5.40;99.90;;;3.07;100.00;99457.34;10434723;28;20127;-83
2023/01/09 00:35:24;;;;;;;31.53;13.17;;;5.40;99.90;;;3.05;100.00;99440.88;10459349;28;20061;-83
2023/01/09 00:40:27;;;;;;;30.13;13.33;;;5.40;99.90;;;3.01;100.00;99439.53;10481651;28;20148;-83
2023/01/09 00:45:31;;;;;;;25.77;13.97;;;5.40;99.90;;;3.04;100.00;99439.22;10451198;28;20653;-83
2023/01/09 00:50:35;;;;;;;28.73;12.80;;;5.40;99.90;;;3.08;100.00;99445.88;10450554;28;20061;-83
2023/01/09 00:55:39;;;;;;;22.67;11.10;;;5.40;99.90;;;3.13;100.00;99441.88;10424475;28;20061;-83
2023/01/09 01:00:42;;;;;;;23.80;12.13;;;5.40;99.90;;;3.23;100.00;99437.41;10474781;28;20200;-83
2023/01/09 01:11:09;;;;;;;35.10;15.20;;;5.60;99.90;;;3.53;100.00;99440.00;10428967;28;20062;-83
2023/01/09 01:16:13;;;;;;;25.30;12.77;;;5.70;99.90;;;3.61;100.00;99424.38;10425686;28;20061;-83
2023/01/09 01:21:16;;;;;;;24.37;11.10;;;5.90;99.90;;;3.72;100.00;99421.59;10458228;28;20069;-83
2023/01/09 01:26:19;;;;;;;23.23;12.23;;;5.90;99.90;;;3.75;100.00;99422.13;10442703;28;20065;-82
2023/01/09 01:31:22;;;;;;;26.03;13.10;;;6.00;99.90;;;3.79;100.00;99409.53;10456010;28;20123;-82
2023/01/09 01:36:25;;;;;;;19.47;11.60;;;6.00;99.90;;;3.90;100.00;99398.84;10459324;28;20061;-82
2023/01/09 01:41:28;;;;;;;27.57;13.77;;;6.10;99.90;;;4.02;100.00;99387.16;10441940;28;20065;-83
2023/01/09 01:46:33;;;;;;;25.70;11.97;;;6.20;99.90;;;4.11;100.00;99368.84;10457938;28;20499;-82
2023/01/09 01:51:42;;;;;;;29.30;13.83;;;6.30;99.90;;;4.24;100.00;99385.09;10454111;28;20431;-82
2023/01/09 01:56:52;;;;;;;22.97;12.30;;;6.40;99.90;;;4.31;100.00;99375.63;10425439;28;20061;-82
2023/01/09 02:01:59;;;;;;;20.70;12.13;;;6.50;99.90;;;4.38;100.00;99363.56;10467787;28;20211;-82
2023/01/09 02:07:09;;;;;;;23.00;12.33;;;6.60;99.90;;;4.45;100.00;99356.72;10421029;28;20061;-82
2023/01/09 02:12:25;;;;;;;19.97;10.37;;;6.70;99.90;;;4.50;100.00;99343.97;10454888;28;20057;-82
2023/01/09 02:17:50;;;;;;;37.90;18.23;;;6.70;99.90;;;4.62;100.00;99335.81;10451628;28;20581;-82
2023/01/09 02:23:25;;;;;;;26.67;14.30;;;6.80;99.90;;;4.70;100.00;99328.84;10457644;28;20065;-82
2023/01/09 02:28:59;;;;;;;23.30;11.67;;;6.90;99.90;;;4.78;100.00;99328.91;10439441;28;20057;-82
2023/01/09 02:34:23;;;;;;;22.73;13.27;;;7.00;99.90;;;4.87;100.00;99332.44;10443469;28;20058;-82
2023/01/09 02:39:39;;;;;;;21.90;12.07;;;7.00;99.90;;;4.91;100.00;99325.88;10473384;28;20072;-82
2023/01/09 02:44:43;;;;;;;20.00;9.90;;;7.10;99.90;;;4.91;100.00;99317.97;10464331;28;20152;-82
2023/01/09 02:49:53;;;;;;;18.10;10.60;;;7.10;99.90;;;4.92;100.00;99318.78;10442736;28;20061;-82
2023/01/09 02:55:23;;;;;;;19.80;10.47;;;7.10;99.90;;;4.93;100.00;99323.94;10439360;28;20644;-82
2023/01/09 03:00:47;;;;;;;19.47;10.00;;;7.10;99.90;;;4.93;100.00;99313.41;10421598;28;20450;-82
2023/01/09 03:06:05;;;;;;;22.80;11.87;;;7.10;99.90;;;4.97;100.00;99309.47;10456234;28;20065;-83
2023/01/09 03:11:10;;;;;;;23.67;12.23;;;7.20;99.90;;;4.99;100.00;99286.44;10437881;28;20545;-82
2023/01/09 03:16:27;;;;;;;17.47;10.33;;;7.20;99.90;;;5.03;100.00;99292.22;10449243;28;20057;-83
2023/01/09 03:21:32;;;;;;;22.47;12.27;;;7.20;99.90;;;5.06;100.00;99294.56;10476412;28;20061;-82
2023/01/09 03:26:35;;;;;;;24.50;11.33;;;7.20;99.90;;;5.05;100.00;99283.19;10457931;28;20450;-82
2023/01/09 03:31:38;;;;;;;19.07;9.80;;;7.30;99.90;;;5.05;100.00;99274.47;10457687;28;20057;-82
2023/01/09 03:36:41;;;;;;;17.57;9.27;;;7.30;99.90;;;5.07;100.00;99277.78;10415108;28;20399;-82
2023/01/09 03:41:44;;;;;;;21.83;11.53;;;7.30;99.90;;;5.08;100.00;99261.81;10408505;28;20058;-81
2023/01/09 03:46:49;;;;;;;21.50;12.40;;;7.30;99.90;;;5.09;100.00;99260.81;10453795;28;20119;-82
2023/01/09 03:51:52;;;;;;;21.90;9.97;;;7.30;99.90;;;5.09;100.00;99255.56;10459241;28;20061;-82
2023/01/09 03:56:55;;;;;;;21.73;10.23;;;7.30;99.90;;;5.08;100.00;99259.19;10479638;28;20182;-82
2023/01/09 04:01:58;;;;;;;18.87;9.70;;;7.30;99.90;;;5.09;100.00;99252.91;10426705;28;20062;-82
2023/01/09 04:07:04;;;;;;;18.43;9.97;;;7.30;99.90;;;5.09;100.00;99255.56;10414364;28;20064;-83
2023/01/09 04:12:07;;;;;;;17.10;9.27;;;7.30;99.90;;;5.09;100.00;99255.56;10462069;28;20069;-83
2023/01/09 04:17:10;;;;;;;18.57;9.87;;;7.30;99.90;;;5.09;100.00;99268.72;10434110;28;20061;-83
2023/01/09 04:22:13;;;;;;;17.10;9.57;;;7.30;99.90;;;5.10;100.00;99257.22;10411188;28;20057;-82
2023/01/09 04:27:16;;;;;;;21.10;10.93;;;7.30;99.90;;;5.13;100.00;99260.53;10460777;28;20065;-83
2023/01/09 04:32:19;;;;;;;25.33;10.87;;;7.30;99.90;;;5.12;100.00;99259.69;10462518;28;20061;-83
2023/01/09 04:37:23;;;;;;;15.63;9.10;;;7.30;99.90;;;5.13;100.00;99260.53;10459795;28;20064;-82
2023/01/09 04:42:26;;;;;;;14.57;7.87;;;7.40;99.90;;;5.12;100.00;99253.63;10446461;28;20140;-83
2023/01/09 04:47:30;;;;;;;22.63;11.80;;;7.30;99.90;;;5.15;100.00;99261.19;10413981;28;20057;-83
2023/01/09 04:52:33;;;;;;;21.10;10.60;;;7.40;99.90;;;5.17;100.00;99256.59;10458105;28;20061;-83
2023/01/09 04:57:36;;;;;;;16.97;9.03;;;7.40;99.90;;;5.14;100.00;99255.09;10429671;28;20065;-83
2023/01/09 05:02:40;;;;;;;16.07;8.47;;;7.40;99.90;;;5.18;100.00;99259.06;10467831;28;20333;-83
2023/01/09 05:07:43;;;;;;;19.20;8.80;;;7.40;99.90;;;5.20;100.00;99251.84;10472174;28;20501;-83
2023/01/09 05:12:46;;;;;;;20.23;10.67;;;7.40;99.90;;;5.20;100.00;99251.00;10428542;28;20638;-82
2023/01/09 05:17:49;;;;;;;24.23;12.20;;;7.40;99.90;;;5.21;100.00;99247.38;10422067;28;20061;-83
2023/01/09 05:22:52;;;;;;;18.33;10.50;;;7.40;99.90;;;5.21;100.00;99242.94;10424858;28;20064;-83
2023/01/09 05:27:55;;;;;;;25.33;12.70;;;7.40;99.90;;;5.20;100.00;99240.47;10456648;28;20132;-82
2023/01/09 05:32:58;;;;;;;25.90;12.43;;;7.40;99.90;;;5.22;100.00;99243.81;10421960;28;20578;-83
2023/01/09 05:38:01;;;;;;;26.30;13.13;;;7.40;99.90;;;5.21;100.00;99237.69;10463860;28;20065;-82
2023/01/09 05:43:04;;;;;;;23.00;12.33;;;7.40;99.90;;;5.18;100.00;99238.00;10463383;28;20111;-86
2023/01/09 05:48:07;;;;;;;20.13;10.47;;;7.40;99.90;;;5.15;100.00;99229.59;10452668;28;20057;-86
2023/01/09 05:53:10;;;;;;;24.63;12.03;;;7.40;99.90;;;5.18;100.00;99240.63;10452090;28;20045;-82
2023/01/09 05:58:13;;;;;;;20.43;10.93;;;7.40;99.90;;;5.20;100.00;99241.31;10447932;28;20062;-83
2023/01/09 06:03:16;;;;;;;22.17;11.47;;;7.40;99.90;;;5.22;100.00;99238.53;10460913;28;20057;-83
2023/01/09 06:08:19;;;;;;;25.30;13.83;;;7.40;99.90;;;5.24;100.00;99232.13;10451264;28;20058;-83
2023/01/09 06:13:22;;;;;;;34.83;15.37;;;7.50;99.90;;;5.29;100.00;99240.38;10419848;28;20151;-83
2023/01/09 06:18:25;;;;;;;28.60;13.67;;;7.50;99.90;;;5.26;100.00;99231.94;10471780;28;20112;-83
2023/01/09 06:23:28;;;;;;;17.87;10.27;;;7.50;99.90;;;5.28;100.00;99237.91;10439148;28;20061;-83
2023/01/09 06:28:31;;;;;;;27.83;14.03;;;7.50;99.90;;;5.25;100.00;99241.66;10440814;28;20058;-83
2023/01/09 06:33:34;;;;;;;25.53;13.77;;;7.50;99.90;;;5.28;100.00;99256.34;10471104;28;20057;-83
2023/01/09 06:38:37;;;;;;;22.97;12.13;;;7.50;99.90;;;5.28;100.00;99251.91;10439052;28;20061;-82
2023/01/09 06:43:40;;;;;;;29.33;13.97;;;7.50;99.90;;;5.29;100.00;99244.81;10440671;28;20061;-82
2023/01/09 06:48:43;;;;;;;23.23;12.87;;;7.50;99.90;;;5.34;100.00;99263.63;10458312;28;20534;-83
2023/01/09 06:53:46;;;;;;;31.60;16.10;;;7.50;99.90;;;5.31;100.00;99259.47;10448682;28;20059;-83
2023/01/09 06:58:49;;;;;;;24.30;13.53;;;7.60;99.90;;;5.35;100.00;99255.56;10465524;28;20521;-83
2023/01/09 07:03:52;;;;;;;43.30;19.23;;;7.60;99.90;;;5.39;100.00;99266.59;10462639;28;20061;-83
2023/01/09 07:08:55;;;;;;;28.47;14.10;;;7.60;99.90;;;5.42;100.00;99261.00;10464031;28;20081;-83
2023/01/09 07:13:58;;;;;;;23.13;13.40;;;7.60;99.90;;;5.47;100.00;99250.81;10462894;28;20065;-83
2023/01/09 07:19:01;;;;;;;22.57;12.30;;;7.60;99.90;;;5.53;100.00;99241.47;10485699;28;20152;-83
2023/01/09 07:24:05;;;;;;;23.77;12.33;;;7.70;99.90;;;5.59;100.00;99232.94;10407361;28;20069;-83
2023/01/09 07:29:07;;;;;;;18.50;11.07;;;7.80;99.90;;;5.61;100.00;99239.69;10434879;28;20057;-82
2023/01/09 07:34:10;;;;;;;22.57;10.60;;;7.80;99.90;;;5.70;100.00;99239.69;10479027;28;20064;-83
2023/01/09 07:39:13;;;;;;;17.80;10.83;;;7.90;99.90;;;5.78;100.00;99245.84;10400255;28;20069;-83
2023/01/09 07:44:16;;;;;;;17.67;10.07;;;7.90;99.90;;;5.83;100.00;99238.28;10464181;28;20066;-83
2023/01/09 07:49:19;;;;;;;15.80;9.53;;;8.00;99.90;;;5.92;100.00;99225.94;10424210;28;20529;-84
2023/01/09 07:54:22;;;;;;;24.40;13.90;;;8.10;99.90;;;6.04;100.00;99240.47;10428485;28;20057;-83
2023/01/09 07:59:28;;;;;;;22.47;11.83;;;8.20;99.90;;;6.11;100.00;99222.19;10457650;28;20061;-83
2023/01/09 08:04:31;;;;;;;22.10;11.90;;;8.30;99.90;;;6.17;100.00;99226.81;10469454;28;20141;-83
2023/01/09 08:09:34;;;;;;;20.00;11.07;;;8.30;99.90;;;6.20;100.00;99217.75;10443167;28;20073;-83
2023/01/09 08:14:37;;;;;;;16.73;10.67;;;8.40;99.90;;;6.21;100.00;99214.13;10448405;28;20061;-83
2023/01/09 08:19:42;;;;;;;32.97;16.70;;;8.40;99.90;;;6.22;100.00;99210.50;10428100;28;20529;-83
2023/01/09 08:24:45;;;;;;;23.43;14.03;;;8.40;99.90;;;6.25;100.00;99204.91;10443057;28;20148;-84
2023/01/09 08:29:48;;;;;;;21.60;11.73;;;8.40;99.90;;;6.28;100.00;99201.94;10470938;28;20068;-83
2023/01/09 08:34:51;;;;;;;24.63;14.23;;;8.40;99.90;;;6.24;100.00;99190.03;10477013;28;20061;-83
2023/01/09 08:39:55;;;;;;;21.33;11.07;;;8.50;99.90;;;6.24;100.00;99200.59;10496809;28;20139;-84
2023/01/09 08:50:19;;;;;;;17.50;9.52;;;8.40;99.90;;;6.05;100.00;99228.13;10460777;28;20485;-83
2023/01/09 08:55:22;;;;;;;16.57;9.83;;;8.30;99.90;;;5.94;100.00;99226.63;10431495;28;20065;-83
2023/01/09 09:00:25;;;;;;;15.23;8.87;;;8.20;99.90;;;5.83;100.00;99234.81;10439057;28;20062;-82
2023/01/09 09:05:31;;;;;;;13.80;8.40;;;8.10;99.90;;;5.78;100.00;99229.19;10440844;28;20053;-82
2023/01/09 09:10:34;;;;;;;15.93;8.67;;;8.10;99.90;;;5.78;100.00;99214.19;10402196;28;20062;-83
2023/01/09 09:15:37;;;;;;;16.93;9.20;;;8.00;99.90;;;5.75;100.00;99200.50;10435156;28;20061;-83
2023/01/09 09:20:40;;;;;;;22.23;10.77;;;8.00;99.90;;;5.71;100.00;99204.47;10476959;28;20066;-83
2023/01/09 09:25:43;;;;;;;16.97;9.23;;;8.00;99.90;;;5.62;100.00;99180.69;10460034;28;20430;-83
2023/01/09 09:30:47;;;;;;;15.20;8.30;;;7.90;99.90;;;5.59;100.00;99180.22;10458933;28;20061;-83
2023/01/09 09:35:50;;;;;;;16.53;9.97;;;7.80;99.90;;;5.53;100.00;99179.03;10436172;28;20058;-83
2023/01/09 09:41:01;;;;;;;17.47;9.30;;;7.80;99.90;;;5.52;100.00;99166.84;10458883;28;20049;-83
2023/01/09 09:46:31;;;;;;;16.73;9.65;;;7.70;99.90;;;5.42;100.00;99165.34;10440510;28;20131;-83
2023/01/09 09:52:10;;;;;;;15.50;8.57;;;7.60;99.90;;;5.34;100.00;99158.25;10418011;28;20073;-82
2023/01/09 09:57:22;;;;;;;25.13;14.60;;;7.50;99.90;;;5.29;100.00;99155.25;10471542;28;20517;-82
2023/01/09 10:02:31;;;;;;;17.43;9.73;;;7.50;99.90;;;5.26;100.00;99161.66;10478014;28;20057;-82
2023/01/09 10:07:41;;;;;;;18.63;10.07;;;7.50;99.90;;;5.25;100.00;99151.28;10491768;28;20396;-82
2023/01/09 10:12:54;;;;;;;24.77;11.73;;;7.40;99.90;;;5.23;100.00;99150.63;10441829;28;20092;-82
2023/01/09 10:18:46;;;;;;;16.07;9.73;;;7.50;99.90;;;5.23;100.00;99148.81;10402129;28;20089;-82
2023/01/09 10:24:19;;;;;;;20.50;11.20;;;7.40;99.90;;;5.19;100.00;99142.22;10455732;28;20064;-83
2023/01/09 10:29:51;;;;;;;21.43;11.73;;;7.40;99.90;;;5.15;100.00;99138.22;10463568;27;20057;-84
2023/01/09 10:35:25;;;;;;;23.23;11.73;;;7.40;99.90;;;5.17;100.00;99136.28;10455572;28;20058;-84
2023/01/09 10:41:08;;;;;;;23.03;12.13;;;7.30;99.90;;;5.17;100.00;99122.28;10465688;28;20092;-83
2023/01/09 10:46:23;;;;;;;19.50;11.70;;;7.40;99.90;;;5.18;100.00;99121.31;10448272;28;20068;-85
2023/01/09 10:51:59;;;;;;;20.03;12.30;;;7.40;99.90;;;5.22;100.00;99110.28;10430887;28;20057;-85
2023/01/09 10:57:39;;;;;;;22.23;12.53;;;7.40;99.90;;;5.24;100.00;99116.22;10442910;28;20067;-85
2023/01/09 11:02:43;;;;;;;19.20;11.30;;;7.40;99.90;;;5.26;100.00;99094.97;10497034;28;20068;-85
2023/01/09 11:08:33;;;;;;;26.43;15.57;;;7.50;99.90;;;5.29;100.00;99090.22;10463322;28;20061;-85
2023/01/09 11:13:42;;;;;;;17.47;10.23;;;7.50;99.90;;;5.31;100.00;99090.06;10421438;28;20061;-85
2023/01/09 11:19:00;;;;;;;17.30;9.83;;;7.50;99.90;;;5.32;100.00;99079.34;10481265;28;20060;-84
2023/01/09 11:24:35;;;;;;;19.37;10.83;;;7.60;99.90;;;5.31;100.00;99064.53;10422780;28;20149;-85
2023/01/09 11:29:42;;;;;;;20.47;11.23;;;7.60;99.90;;;5.23;100.00;99050.53;10442283;28;20645;-83
2023/01/09 11:34:45;;;;;;;18.53;11.03;;;7.50;99.90;;;5.15;100.00;99050.50;10437271;28;20528;-84
2023/01/09 11:39:48;;;;;;;20.93;11.50;;;7.40;99.90;;;5.07;100.00;99046.88;10462522;28;20152;-84
2023/01/09 11:44:57;;;;;;;23.93;13.63;;;7.40;99.90;;;5.09;100.00;99047.53;10446321;28;20400;-84
2023/01/09 11:50:17;;;;;;;20.40;10.97;;;7.40;99.90;;;5.13;100.00;99057.75;10477406;28;20054;-84
2023/01/09 11:55:20;;;;;;;24.47;13.17;;;7.30;99.90;;;5.16;100.00;99060.91;10442611;28;20061;-84
2023/01/09 12:00:58;;;;;;;26.17;14.47;;;7.40;99.90;;;5.18;100.00;99058.91;10417253;28;20454;-84
2023/01/09 12:06:28;;;;;;;25.33;12.45;;;7.40;99.90;;;5.19;100.00;99054.47;10424821;28;20062;-84
2023/01/09 12:12:00;;;;;;;24.70;14.07;;;7.40;99.90;;;5.19;100.00;99039.50;10431969;28;20145;-84
2023/01/09 12:17:30;;;;;;;36.03;17.67;;;7.40;99.90;;;5.21;100.00;99036.69;10446430;28;20145;-84
2023/01/09 12:23:25;;;;;;;26.47;13.20;;;7.40;99.90;;;5.26;100.00;99031.75;10425561;28;20089;-84
2023/01/09 12:29:01;;;;;;;23.67;13.57;;;7.50;99.90;;;5.29;100.00;99029.63;10383193;28;20136;-83
2023/01/09 12:34:16;;;;;;;23.27;13.37;;;7.50;99.90;;;5.28;100.00;99030.63;10442769;28;20057;-83
2023/01/09 12:40:22;;;;;;;25.17;14.17;;;7.50;99.90;;;5.29;100.00;99016.47;10443472;28;20065;-83
2023/01/09 12:46:20;;;;;;;26.97;14.03;;;7.50;99.90;;;5.27;100.00;99009.69;10420271;28;20060;-83
2023/01/09 12:51:53;;;;;;;24.87;14.73;;;7.50;99.90;;;5.29;100.00;99002.47;10456528;28;20068;-83
2023/01/09 12:57:05;;;;;;;26.20;14.20;;;7.50;99.90;;;5.29;100.00;98999.84;10439306;28;20057;-84
2023/01/09 13:02:14;;;;;;;32.33;18.00;;;7.50;99.90;;;5.28;100.00;98995.56;10433629;28;20151;-83
2023/01/09 13:07:29;;;;;;;37.37;18.47;;;7.50;99.90;;;5.26;100.00;98997.53;10445260;28;20153;-83
2023/01/09 13:12:38;;;;;;;33.07;16.10;;;7.50;99.90;;;5.26;100.00;98989.63;10461269;28;20057;-81
2023/01/09 13:18:45;;;;;;;32.67;15.83;;;7.50;99.90;;;5.24;100.00;98994.25;10402576;28;20054;-81
2023/01/09 13:24:13;;;;;;;26.33;13.47;;;7.50;99.90;;;5.22;100.00;98988.31;10403206;28;20068;-81
2023/01/09 13:29:35;;;;;;;23.07;13.17;;;7.40;99.90;;;5.21;100.00;98984.00;10458525;28;20140;-82
2023/01/09 13:34:39;;;;;;;24.07;14.23;;;7.40;99.90;;;5.20;100.00;98987.63;10459999;28;20427;-81
2023/01/09 13:39:42;;;;;;;43.43;19.27;;;7.40;99.90;;;5.19;100.00;98986.81;10434934;28;20060;-81
2023/01/09 13:44:48;;;;;;;45.37;19.03;;;7.40;99.90;;;5.21;100.00;98995.38;10475483;28;20510;-81
2023/01/09 13:49:51;;;;;;;35.57;17.87;;;7.40;99.90;;;5.20;100.00;98998.19;10419175;28;20093;-81
2023/01/09 13:54:59;;;;;;;33.30;15.63;;;7.40;99.90;;;5.20;100.00;98996.34;10458373;28;20057;-82
2023/01/09 14:00:11;;;;;;;30.87;15.60;;;7.40;99.90;;;5.18;100.00;99005.41;10462111;28;20140;-82
2023/01/09 14:05:23;;;;;;;38.33;18.67;;;7.30;99.90;;;5.17;100.00;99001.16;10453594;28;20064;-81
2023/01/09 14:10:47;;;;;;;48.20;21.93;;;7.30;99.90;;;5.18;100.00;99013.31;10443385;28;20137;-81
2023/01/09 14:16:07;;;;;;;48.53;22.47;;;7.30;99.90;;;5.16;100.00;99002.97;10460767;28;20100;-81
2023/01/09 14:21:11;;;;;;;46.53;20.83;;;7.30;99.90;;;5.19;100.00;98997.34;10441799;28;20099;-81
2023/01/09 14:26:42;;;;;;;46.40;22.17;;;7.40;99.90;;;5.24;100.00;98999.50;10458452;28;20060;-81
2023/01/09 14:31:44;;;;;;;28.57;16.67;;;7.40;99.90;;;5.25;100.00;98991.44;10442237;28;20530;-81
2023/01/09 14:36:48;;;;;;;41.97;19.93;;;7.40;99.90;;;5.28;100.00;98985.03;10440893;28;20101;-81
2023/01/09 14:41:57;;;;;;;32.50;17.50;;;7.50;99.90;;;5.29;100.00;98986.69;10441302;28;20132;-81
2023/01/09 14:47:38;;;;;;;30.33;15.10;;;7.50;99.90;;;5.28;100.00;98985.84;10441829;28;20089;-82
2023/01/09 14:52:54;;;;;;;40.73;19.43;;;7.50;99.90;;;5.23;100.00;99001.31;10408977;28;20062;-82
2023/01/09 14:58:22;;;;;;;41.00;19.87;;;7.40;99.90;;;5.18;100.00;98987.00;10463111;28;20396;-82
2023/01/09 15:03:40;;;;;;;68.33;30.40;;;7.40;99.90;;;5.17;100.00;98998.50;10449080;28;20423;-83
2023/01/09 15:08:46;;;;;;;54.77;23.57;;;7.40;99.90;;;5.13;100.00;98976.13;10474488;28;20566;-83
2023/01/09 15:13:52;;;;;;;46.37;21.60;;;7.30;99.90;;;5.14;100.00;98986.47;10430165;28;20418;-80
2023/01/09 15:19:03;;;;;;;46.87;21.43;;;7.30;99.90;;;5.13;100.00;98994.53;10449069;28;20054;-80
2023/01/09 15:24:28;;;;;;;40.92;22.27;;;7.30;99.90;;;5.13;100.00;98981.38;10445355;28;20553;-79
2023/01/09 15:29:31;;;;;;;40.83;19.87;;;7.30;99.90;;;5.16;100.00;98988.94;10462635;28;20071;-80
2023/01/09 15:34:36;;;;;;;39.83;19.83;;;7.40;99.90;;;5.16;100.00;98994.22;10463503;28;20060;-79
2023/01/09 15:39:39;;;;;;;52.00;22.80;;;7.40;99.90;;;5.15;100.00;98989.94;10432687;28;20067;-79
2023/01/09 15:44:46;;;;;;;63.07;25.90;;;7.40;99.90;;;5.16;100.00;98991.56;10453669;28;20422;-78
2023/01/09 15:49:51;;;;;;;56.43;25.50;;;7.40;99.90;;;5.17;100.00;98990.63;10480629;28;20058;-80
2023/01/09 15:54:54;;;;;;;49.73;25.43;;;7.40;99.90;;;5.17;100.00;98988.81;10464995;28;20061;-80
2023/01/09 16:00:52;;;;;;;69.13;32.93;;;7.40;99.90;;;5.19;100.00;98975.47;10474598;28;20466;-79
2023/01/09 16:06:06;;;;;;;53.13;27.83;;;7.40;99.90;;;5.18;100.00;98961.47;10449370;28;20061;-79
2023/01/09 16:11:26;;;;;;;70.83;31.30;;;7.40;99.90;;;5.19;100.00;98965.75;10478824;28;20111;-80
2023/01/09 16:16:32;;;;;;;63.27;27.90;;;7.40;99.90;;;5.16;100.00;98946.81;10469209;28;20180;-80
2023/01/09 16:21:36;;;;;;;60.70;25.70;;;7.40;99.90;;;5.17;100.00;98945.84;10465416;28;20112;-80
2023/01/09 16:26:39;;;;;;;43.63;21.93;;;7.40;99.90;;;5.16;100.00;98952.06;10445557;28;20065;-81
2023/01/09 16:31:42;;;;;;;41.90;20.90;;;7.30;99.90;;;5.11;100.00;98936.78;10416169;28;20061;-81
2023/01/09 16:36:45;;;;;;;48.43;21.77;;;7.30;99.90;;;5.15;100.00;98943.34;10436936;28;20054;-82
2023/01/09 16:47:11;;;;;;;43.33;19.73;;;7.40;99.90;;;5.14;100.00;98948.78;10457652;28;20061;-80
2023/01/09 16:52:17;;;;;;;51.67;21.77;;;7.30;99.90;;;5.08;100.00;98937.91;10447383;28;20065;-81
2023/01/09 16:57:20;;;;;;;50.63;21.63;;;7.30;99.90;;;5.11;100.00;98939.41;10449643;28;20068;-81
2023/01/09 17:02:23;;;;;;;54.30;22.23;;;7.30;99.90;;;5.12;100.00;98942.88;10422759;28;20530;-81
2023/01/09 17:07:29;;;;;;;52.80;21.03;;;7.30;99.90;;;5.13;100.00;98933.97;10445757;28;20798;-81
2023/01/09 17:12:33;;;;;;;52.90;21.17;;;7.40;99.90;;;5.15;100.00;98926.72;10450163;28;20590;-81
2023/01/09 17:17:35;;;;;;;47.90;22.30;;;7.40;99.90;;;5.15;100.00;98918.81;10445540;28;20053;-81
2023/01/09 17:22:39;;;;;;;52.20;22.20;;;7.40;99.90;;;5.10;100.00;98912.25;10456637;28;20068;-81
2023/01/09 17:33:04;;;;;;;43.78;20.98;;;7.30;99.90;;;5.13;100.00;98918.19;10430063;28;20061;-82
2023/01/09 17:38:13;;;;;;;43.07;19.67;;;7.40;99.90;;;5.14;100.00;98922.44;10426641;28;20137;-82
2023/01/09 17:43:17;;;;;;;43.03;19.23;;;7.40;99.90;;;5.10;100.00;98925.44;10441794;28;20054;-82
2023/01/09 17:48:21;;;;;;;47.57;20.70;;;7.40;99.90;;;5.15;100.00;98922.28;10421920;28;20489;-81
2023/01/09 17:53:24;;;;;;;39.53;17.40;;;7.40;99.90;;;5.15;100.00;98919.66;10465284;28;20061;-82
2023/01/09 17:58:29;;;;;;;55.87;21.07;;;7.40;99.90;;;5.15;100.00;98916.19;10456089;28;20461;-81
2023/01/09 18:03:33;;;;;;;61.73;24.80;;;7.40;99.90;;;5.13;100.00;98907.66;10428572;28;20093;-82
2023/01/09 18:08:37;;;;;;;58.70;26.00;;;7.40;99.90;;;5.12;100.00;98903.38;10417741;28;20066;-81
2023/01/09 18:13:40;;;;;;;66.33;26.77;;;7.40;99.90;;;5.15;100.00;98903.03;10436625;28;20072;-81
2023/01/09 18:18:45;;;;;;;65.80;23.37;;;7.40;99.90;;;5.16;100.00;98905.53;10457605;28;20069;-81
2023/01/09 18:23:49;;;;;;;54.63;19.93;;;7.40;99.90;;;5.16;100.00;98897.63;10456520;28;20417;-81
2023/01/09 18:28:57;;;;;;;41.27;17.27;;;7.40;99.90;;;5.15;100.00;98895.13;10425238;28;20140;-81
2023/01/09 18:34:04;;;;;;;48.37;18.10;;;7.40;99.90;;;5.16;100.00;98894.97;10421696;28;20499;-81
2023/01/09 18:39:07;;;;;;;36.93;15.83;;;7.40;99.90;;;5.15;100.00;98889.88;10485164;28;20061;-81
2023/01/09 18:44:10;;;;;;;35.83;15.10;;;7.40;99.90;;;5.16;100.00;98886.22;10447417;28;20057;-81
2023/01/09 18:49:14;;;;;;;30.77;15.70;;;7.40;99.90;;;5.15;100.00;98874.06;10439449;28;20059;-80
2023/01/09 18:54:17;;;;;;;38.43;16.10;;;7.30;99.90;;;5.13;100.00;98873.41;10492239;28;20507;-81
2023/01/09 18:59:20;;;;;;;42.33;18.60;;;7.30;99.90;;;5.12;100.00;98863.88;10463217;28;20061;-80
2023/01/09 19:04:23;;;;;;;50.13;20.37;;;7.30;99.90;;;5.08;100.00;98848.38;10415791;28;20168;-81
2023/01/09 19:09:26;;;;;;;38.60;18.73;;;7.30;99.90;;;5.09;100.00;98854.47;10475119;28;20058;-80
2023/01/09 19:14:29;;;;;;;37.30;16.13;;;7.30;99.90;;;5.08;100.00;98851.03;10458946;28;20057;-81
2023/01/09 19:19:33;;;;;;;37.13;17.27;;;7.30;99.90;;;5.10;100.00;98856.97;10440681;28;20546;-81
2023/01/09 19:24:36;;;;;;;33.23;14.50;;;7.30;99.90;;;5.10;100.00;98850.88;10450463;28;20132;-82
2023/01/09 19:29:39;;;;;;;29.33;14.43;;;7.30;99.90;;;5.07;100.00;98846.75;10441963;28;20088;-82
2023/01/09 19:34:42;;;;;;;35.77;15.90;;;7.30;99.90;;;5.10;100.00;98845.63;10443032;28;20116;-82
2023/01/09 19:39:45;;;;;;;32.93;14.77;;;7.30;99.90;;;5.09;100.00;98850.03;10434152;28;20521;-81
2023/01/09 19:44:48;;;;;;;34.27;16.27;;;7.30;99.90;;;5.12;100.00;98853.34;10452906;28;20148;-83
2023/01/09 19:49:52;;;;;;;32.40;16.23;;;7.30;99.90;;;5.13;100.00;98849.72;10431398;28;20431;-82
2023/01/09 19:54:55;;;;;;;30.03;13.63;;;7.30;99.90;;;5.13;100.00;98841.81;10484775;28;20060;-82
2023/01/09 19:59:58;;;;;;;33.07;14.73;;;7.30;99.90;;;5.13;100.00;98847.09;10442854;28;20533;-82
2023/01/09 20:05:01;;;;;;;42.10;14.53;;;7.30;99.90;;;5.12;100.00;98848.06;10459451;28;20072;-81
2023/01/09 20:10:05;;;;;;;30.40;13.57;;;7.30;99.90;;;5.11;100.00;98834.09;10459308;28;20061;-82
2023/01/09 20:15:13;;;;;;;32.17;13.57;;;7.30;99.90;;;5.10;100.00;98837.72;10431812;28;20057;-82
2023/01/09 20:20:16;;;;;;;34.30;14.80;;;7.30;99.90;;;5.09;100.00;98836.88;10482141;28;20065;-82
2023/01/09 20:25:18;;;;;;;28.07;13.13;;;7.30;99.90;;;5.12;100.00;98827.81;10458744;28;20144;-82
2023/01/09 20:30:21;;;;;;;37.60;17.57;;;7.30;99.90;;;5.12;100.00;98821.75;10465774;28;20063;-82
2023/01/09 20:35:24;;;;;;;26.57;12.37;;;7.30;99.90;;;5.10;100.00;98808.75;10442076;28;20064;-81
2023/01/09 20:40:29;;;;;;;30.10;11.63;;;7.30;99.90;;;5.11;100.00;98807.75;10468153;28;20521;-81
2023/01/09 20:45:33;;;;;;;31.77;11.23;;;7.30;99.90;;;5.10;100.00;98804.31;10457237;28;20061;-82
2023/01/09 20:50:37;;;;;;;30.43;12.50;;;7.30;99.90;;;5.10;100.00;98798.22;10428316;28;20434;-86
2023/01/09 20:55:40;;;;;;;31.37;11.03;;;7.30;99.90;;;5.13;100.00;98800.50;10408764;28;20478;-86
2023/01/09 21:00:43;;;;;;;25.00;11.37;;;7.30;99.90;;;5.11;100.00;98799.84;10432842;28;20057;-86
2023/01/09 21:05:47;;;;;;;29.37;11.47;;;7.30;99.90;;;5.16;100.00;98791.44;10449730;28;20060;-81
2023/01/09 21:10:56;;;;;;;26.33;11.20;;;7.30;99.90;;;5.15;100.00;98790.63;10426207;28;20069;-81
2023/01/09 21:16:04;;;;;;;25.47;10.60;;;7.30;99.90;;;5.16;100.00;98797.56;10454051;28;20160;-81
2023/01/09 21:21:15;;;;;;;26.67;10.40;;;7.30;99.90;;;5.10;100.00;98783.25;10451699;28;20403;-81
2023/01/09 21:26:21;;;;;;;28.40;11.40;;;7.30;99.90;;;5.16;100.00;98794.91;10451228;28;20057;-81
2023/01/09 21:31:33;;;;;;;21.00;9.20;;;7.40;99.90;;;5.17;100.00;98799.19;10433637;28;20063;-82
2023/01/09 21:36:37;;;;;;;18.60;8.60;;;7.40;99.90;;;5.18;100.00;98795.56;10445638;28;20510;-83
2023/01/09 21:47:02;;;;;;;19.63;9.20;;;7.40;99.90;;;5.19;100.00;98799.00;10438560;28;20510;-82